Terminal Aerodrome Forecast
Issued by NWS

Home | Current Version | Previous Version | Text Only | Print | Product List | Glossary On
Versions: 1 2 3 4 5 6 7 8 9 10 11 12 13 14 15 16 17 18 19 20 21
000
FTUS42 KRAH 250720 AAB
TAFRWI
TAF AMD
KRWI 250720Z 2507/2606 VRB02KT 3SM BR SKC
      TEMPO 2507/2508 1SM BR OVC010
     FM250800 19004KT 2SM BR SCT004
      TEMPO 2509/2513 1/2SM FG VV002
     FM251300 19010G17KT P6SM FEW012 SCT050
     FM251800 22015G24KT 3SM -SHRA BR FEW030 BKN040
     FM252100 25016G26KT P6SM BKN050
     FM252200 29012G18KT P6SM SCT060=

USA.gov is the U.S. government's official web portal to all federal, state and local government web resources and services.